sensor_id;sensor_type;location;lat;lon;timestamp;temperature;humidity
3256;DHT22;1640;48.504;9.224;2023-04-01T00:01:05;9.00;99.90
3256;DHT22;1640;48.504;9.224;2023-04-01T00:03:33;9.00;99.90
3256;DHT22;1640;48.504;9.224;2023-04-01T00:06:01;9.00;99.90
3256;DHT22;1640;48.504;9.224;2023-04-01T00:08:30;9.00;99.90
3256;DHT22;1640;48.504;9.224;2023-04-01T00:10:57;8.90;99.90
3256;DHT22;1640;48.504;9.224;2023-04-01T00:13:26;8.90;99.90
3256;DHT22;1640;48.504;9.224;2023-04-01T00:15:54;9.00;99.90
3256;DHT22;1640;48.504;9.224;2023-04-01T00:18:25;8.90;99.90
3256;DHT22;1640;48.504;9.224;2023-04-01T00:20:53;8.80;99.90
3256;DHT22;1640;48.504;9.224;2023-04-01T00:23:21;8.80;99.90
3256;DHT22;1640;48.504;9.224;2023-04-01T00:25:50;8.90;99.90
3256;DHT22;1640;48.504;9.224;2023-04-01T00:28:19;8.90;99.90
3256;DHT22;1640;48.504;9.224;2023-04-01T00:30:47;8.90;99.90
3256;DHT22;1640;48.504;9.224;2023-04-01T00:33:15;8.80;99.90
3256;DHT22;1640;48.504;9.224;2023-04-01T00:35:42;8.80;99.90
3256;DHT22;1640;48.504;9.224;2023-04-01T00:38:10;8.90;99.90
3256;DHT22;1640;48.504;9.224;2023-04-01T00:40:40;8.90;99.90
3256;DHT22;1640;48.504;9.224;2023-04-01T00:43:12;9.00;99.90
3256;DHT22;1640;48.504;9.224;2023-04-01T00:45:42;9.00;99.90
3256;DHT22;1640;48.504;9.224;2023-04-01T00:48:13;8.80;99.90
3256;DHT22;1640;48.504;9.224;2023-04-01T00:50:45;8.80;99.90
3256;DHT22;1640;48.504;9.224;2023-04-01T00:53:16;8.80;99.90
3256;DHT22;1640;48.504;9.224;2023-04-01T00:55:49;8.90;99.90
3256;DHT22;1640;48.504;9.224;2023-04-01T00:58:21;8.90;99.90
3256;DHT22;1640;48.504;9.224;2023-04-01T01:00:51;8.80;99.90
3256;DHT22;1640;48.504;9.224;2023-04-01T01:03:19;8.70;99.90
3256;DHT22;1640;48.504;9.224;2023-04-01T01:06:06;8.70;99.90
3256;DHT22;1640;48.504;9.224;2023-04-01T01:08:45;8.60;99.90
3256;DHT22;1640;48.504;9.224;2023-04-01T01:11:18;8.60;99.90
3256;DHT22;1640;48.504;9.224;2023-04-01T01:13:56;8.60;99.90
3256;DHT22;1640;48.504;9.224;2023-04-01T01:16:29;8.60;99.90
3256;DHT22;1640;48.504;9.224;2023-04-01T01:19:03;8.60;99.90
3256;DHT22;1640;48.504;9.224;2023-04-01T01:24:46;8.60;99.90
3256;DHT22;1640;48.504;9.224;2023-04-01T01:27:19;8.50;99.90
3256;DHT22;1640;48.504;9.224;2023-04-01T01:30:04;8.50;99.90
3256;DHT22;1640;48.504;9.224;2023-04-01T01:32:50;8.40;99.90
3256;DHT22;1640;48.504;9.224;2023-04-01T01:35:24;8.50;99.90
3256;DHT22;1640;48.504;9.224;2023-04-01T01:37:55;8.50;99.90
3256;DHT22;1640;48.504;9.224;2023-04-01T01:40:24;8.60;99.90
3256;DHT22;1640;48.504;9.224;2023-04-01T01:42:56;8.60;99.90
3256;DHT22;1640;48.504;9.224;2023-04-01T01:45:26;8.60;99.90
3256;DHT22;1640;48.504;9.224;2023-04-01T01:47:55;8.60;99.90
3256;DHT22;1640;48.504;9.224;2023-04-01T01:50:26;8.60;99.90
3256;DHT22;1640;48.504;9.224;2023-04-01T01:53:04;8.60;99.90
3256;DHT22;1640;48.504;9.224;2023-04-01T01:55:34;8.60;99.90
3256;DHT22;1640;48.504;9.224;2023-04-01T01:58:08;8.60;99.90
3256;DHT22;1640;48.504;9.224;2023-04-01T02:00:38;8.60;2.90
3256;DHT22;1640;48.504;9.224;2023-04-01T02:03:06;8.60;3.60
3256;DHT22;1640;48.504;9.224;2023-04-01T02:05:35;8.70;0.50
3256;DHT22;1640;48.504;9.224;2023-04-01T02:08:06;8.70;2.00
3256;DHT22;1640;48.504;9.224;2023-04-01T02:10:37;8.70;2.30
3256;DHT22;1640;48.504;9.224;2023-04-01T02:13:11;8.70;2.10
3256;DHT22;1640;48.504;9.224;2023-04-01T02:15:44;8.60;0.50
3256;DHT22;1640;48.504;9.224;2023-04-01T02:18:13;8.60;3.00
3256;DHT22;1640;48.504;9.224;2023-04-01T02:20:44;8.60;4.20
3256;DHT22;1640;48.504;9.224;2023-04-01T02:23:12;8.60;6.10
3256;DHT22;1640;48.504;9.224;2023-04-01T02:25:41;8.60;2.30
3256;DHT22;1640;48.504;9.224;2023-04-01T02:28:10;8.60;99.90
3256;DHT22;1640;48.504;9.224;2023-04-01T02:30:41;8.50;99.90
3256;DHT22;1640;48.504;9.224;2023-04-01T02:33:10;8.40;99.90
3256;DHT22;1640;48.504;9.224;2023-04-01T02:35:37;8.30;99.90
3256;DHT22;1640;48.504;9.224;2023-04-01T02:38:07;8.30;99.90
3256;DHT22;1640;48.504;9.224;2023-04-01T02:40:45;8.30;99.90
3256;DHT22;1640;48.504;9.224;2023-04-01T02:43:13;8.30;99.90
3256;DHT22;1640;48.504;9.224;2023-04-01T02:45:41;8.30;99.90
3256;DHT22;1640;48.504;9.224;2023-04-01T02:48:08;8.30;99.90
3256;DHT22;1640;48.504;9.224;2023-04-01T02:50:36;8.30;99.90
3256;DHT22;1640;48.504;9.224;2023-04-01T02:53:03;8.30;99.90
3256;DHT22;1640;48.504;9.224;2023-04-01T02:55:33;8.20;99.90
3256;DHT22;1640;48.504;9.224;2023-04-01T02:58:02;8.10;99.90
3256;DHT22;1640;48.504;9.224;2023-04-01T03:00:30;8.00;99.90
3256;DHT22;1640;48.504;9.224;2023-04-01T03:02:57;7.90;99.90
3256;DHT22;1640;48.504;9.224;2023-04-01T03:05:25;7.90;99.90
3256;DHT22;1640;48.504;9.224;2023-04-01T03:07:53;7.80;99.90
3256;DHT22;1640;48.504;9.224;2023-04-01T03:10:21;7.80;99.90
3256;DHT22;1640;48.504;9.224;2023-04-01T03:12:50;7.70;99.90
3256;DHT22;1640;48.504;9.224;2023-04-01T03:15:17;7.60;99.90
3256;DHT22;1640;48.504;9.224;2023-04-01T03:17:45;7.50;99.90
3256;DHT22;1640;48.504;9.224;2023-04-01T03:20:15;7.50;99.90
3256;DHT22;1640;48.504;9.224;2023-04-01T03:22:42;7.40;99.90
3256;DHT22;1640;48.504;9.224;2023-04-01T03:25:10;7.30;99.90
3256;DHT22;1640;48.504;9.224;2023-04-01T03:27:38;7.30;99.90
3256;DHT22;1640;48.504;9.224;2023-04-01T03:30:08;7.30;99.90
3256;DHT22;1640;48.504;9.224;2023-04-01T03:32:36;7.20;99.90
3256;DHT22;1640;48.504;9.224;2023-04-01T03:35:04;7.20;99.90
3256;DHT22;1640;48.504;9.224;2023-04-01T03:37:32;7.20;99.90
3256;DHT22;1640;48.504;9.224;2023-04-01T03:40:00;7.20;99.90
3256;DHT22;1640;48.504;9.224;2023-04-01T03:42:27;7.10;99.90
3256;DHT22;1640;48.504;9.224;2023-04-01T03:44:56;7.10;99.90
3256;DHT22;1640;48.504;9.224;2023-04-01T03:47:25;7.00;99.90
3256;DHT22;1640;48.504;9.224;2023-04-01T03:49:53;7.00;99.90
3256;DHT22;1640;48.504;9.224;2023-04-01T03:52:21;7.00;99.90
3256;DHT22;1640;48.504;9.224;2023-04-01T03:54:48;6.90;99.90
3256;DHT22;1640;48.504;9.224;2023-04-01T03:57:16;6.90;99.90
3256;DHT22;1640;48.504;9.224;2023-04-01T03:59:43;6.90;99.90
3256;DHT22;1640;48.504;9.224;2023-04-01T04:02:11;6.80;99.90
3256;DHT22;1640;48.504;9.224;2023-04-01T04:04:40;6.90;99.90
3256;DHT22;1640;48.504;9.224;2023-04-01T04:07:08;6.90;99.90
3256;DHT22;1640;48.504;9.224;2023-04-01T04:09:36;7.00;99.90
3256;DHT22;1640;48.504;9.224;2023-04-01T04:12:04;7.10;99.90
3256;DHT22;1640;48.504;9.224;2023-04-01T04:14:31;7.30;99.90
3256;DHT22;1640;48.504;9.224;2023-04-01T04:16:59;7.30;99.90
3256;DHT22;1640;48.504;9.224;2023-04-01T04:19:30;7.30;99.90
3256;DHT22;1640;48.504;9.224;2023-04-01T04:22:03;7.30;99.90
3256;DHT22;1640;48.504;9.224;2023-04-01T04:24:31;7.40;99.90
3256;DHT22;1640;48.504;9.224;2023-04-01T04:26:58;7.40;99.90
3256;DHT22;1640;48.504;9.224;2023-04-01T04:29:28;7.40;99.90
3256;DHT22;1640;48.504;9.224;2023-04-01T04:31:56;7.50;99.90
3256;DHT22;1640;48.504;9.224;2023-04-01T04:34:23;7.50;99.90
3256;DHT22;1640;48.504;9.224;2023-04-01T04:36:51;7.40;99.90
3256;DHT22;1640;48.504;9.224;2023-04-01T04:39:20;7.50;99.90
3256;DHT22;1640;48.504;9.224;2023-04-01T04:41:47;7.50;99.90
3256;DHT22;1640;48.504;9.224;2023-04-01T04:44:15;7.60;99.90
3256;DHT22;1640;48.504;9.224;2023-04-01T04:46:42;7.60;99.90
3256;DHT22;1640;48.504;9.224;2023-04-01T04:49:10;7.60;99.90
3256;DHT22;1640;48.504;9.224;2023-04-01T04:51:38;7.60;99.90
3256;DHT22;1640;48.504;9.224;2023-04-01T04:54:06;7.60;99.90
3256;DHT22;1640;48.504;9.224;2023-04-01T04:56:35;7.70;99.90
3256;DHT22;1640;48.504;9.224;2023-04-01T04:59:03;7.70;99.90
3256;DHT22;1640;48.504;9.224;2023-04-01T05:01:30;7.70;99.90
3256;DHT22;1640;48.504;9.224;2023-04-01T05:03:59;7.70;99.90
3256;DHT22;1640;48.504;9.224;2023-04-01T05:06:27;7.70;99.90
3256;DHT22;1640;48.504;9.224;2023-04-01T05:08:56;7.80;99.90
3256;DHT22;1640;48.504;9.224;2023-04-01T05:11:24;7.80;99.90
3256;DHT22;1640;48.504;9.224;2023-04-01T05:13:53;7.80;99.90
3256;DHT22;1640;48.504;9.224;2023-04-01T05:16:21;7.90;99.90
3256;DHT22;1640;48.504;9.224;2023-04-01T05:18:48;7.90;99.90
3256;DHT22;1640;48.504;9.224;2023-04-01T05:21:16;8.00;99.90
3256;DHT22;1640;48.504;9.224;2023-04-01T05:23:44;8.00;99.90
3256;DHT22;1640;48.504;9.224;2023-04-01T05:26:13;8.10;99.90
3256;DHT22;1640;48.504;9.224;2023-04-01T05:28:41;8.20;5.30
3256;DHT22;1640;48.504;9.224;2023-04-01T05:31:13;8.20;6.60
3256;DHT22;1640;48.504;9.224;2023-04-01T05:33:40;8.20;6.70
3256;DHT22;1640;48.504;9.224;2023-04-01T05:36:09;8.20;6.80
3256;DHT22;1640;48.504;9.224;2023-04-01T05:38:36;8.30;14.40
3256;DHT22;1640;48.504;9.224;2023-04-01T05:41:04;8.40;16.90
3256;DHT22;1640;48.504;9.224;2023-04-01T05:43:35;8.40;18.70
3256;DHT22;1640;48.504;9.224;2023-04-01T05:46:03;8.50;19.20
3256;DHT22;1640;48.504;9.224;2023-04-01T05:48:32;8.50;20.50
3256;DHT22;1640;48.504;9.224;2023-04-01T05:51:00;8.60;22.40
3256;DHT22;1640;48.504;9.224;2023-04-01T05:53:28;8.70;23.40
3256;DHT22;1640;48.504;9.224;2023-04-01T05:55:56;8.80;28.10
3256;DHT22;1640;48.504;9.224;2023-04-01T05:58:32;8.90;29.40
3256;DHT22;1640;48.504;9.224;2023-04-01T06:01:01;8.90;34.10
3256;DHT22;1640;48.504;9.224;2023-04-01T06:03:29;8.90;34.60
3256;DHT22;1640;48.504;9.224;2023-04-01T06:05:58;8.90;34.50
3256;DHT22;1640;48.504;9.224;2023-04-01T06:08:28;8.90;31.40
3256;DHT22;1640;48.504;9.224;2023-04-01T06:11:04;9.00;35.40
3256;DHT22;1640;48.504;9.224;2023-04-01T06:13:47;9.00;36.80
3256;DHT22;1640;48.504;9.224;2023-04-01T06:16:25;9.10;36.20
3256;DHT22;1640;48.504;9.224;2023-04-01T06:19:08;9.20;34.50
3256;DHT22;1640;48.504;9.224;2023-04-01T06:22:05;9.10;34.70
3256;DHT22;1640;48.504;9.224;2023-04-01T06:24:45;9.20;33.10
3256;DHT22;1640;48.504;9.224;2023-04-01T06:27:36;9.20;38.00
3256;DHT22;1640;48.504;9.224;2023-04-01T06:30:29;9.30;37.70
3256;DHT22;1640;48.504;9.224;2023-04-01T06:33:24;9.40;39.10
3256;DHT22;1640;48.504;9.224;2023-04-01T06:36:08;9.40;40.20
3256;DHT22;1640;48.504;9.224;2023-04-01T06:39:01;9.50;41.70
3256;DHT22;1640;48.504;9.224;2023-04-01T06:44:36;9.50;40.70
3256;DHT22;1640;48.504;9.224;2023-04-01T06:47:16;9.40;44.40
3256;DHT22;1640;48.504;9.224;2023-04-01T06:49:55;9.50;47.00
3256;DHT22;1640;48.504;9.224;2023-04-01T06:52:34;9.50;45.70
3256;DHT22;1640;48.504;9.224;2023-04-01T06:55:26;9.60;47.40
3256;DHT22;1640;48.504;9.224;2023-04-01T06:57:56;9.70;47.80
3256;DHT22;1640;48.504;9.224;2023-04-01T07:00:29;9.70;49.30
3256;DHT22;1640;48.504;9.224;2023-04-01T07:03:05;9.70;49.10
3256;DHT22;1640;48.504;9.224;2023-04-01T07:05:34;9.90;49.80
3256;DHT22;1640;48.504;9.224;2023-04-01T07:08:05;9.90;53.30
3256;DHT22;1640;48.504;9.224;2023-04-01T07:10:43;9.90;51.70
3256;DHT22;1640;48.504;9.224;2023-04-01T07:13:17;9.90;52.50
3256;DHT22;1640;48.504;9.224;2023-04-01T07:15:54;10.00;51.40
3256;DHT22;1640;48.504;9.224;2023-04-01T07:18:30;10.00;52.00
3256;DHT22;1640;48.504;9.224;2023-04-01T07:21:00;10.00;52.10
3256;DHT22;1640;48.504;9.224;2023-04-01T07:23:32;10.10;51.60
3256;DHT22;1640;48.504;9.224;2023-04-01T07:26:06;10.20;51.60
3256;DHT22;1640;48.504;9.224;2023-04-01T07:28:38;10.10;51.70
3256;DHT22;1640;48.504;9.224;2023-04-01T07:31:14;10.10;53.90
3256;DHT22;1640;48.504;9.224;2023-04-01T07:33:46;10.20;51.70
3256;DHT22;1640;48.504;9.224;2023-04-01T07:36:21;10.20;53.70
3256;DHT22;1640;48.504;9.224;2023-04-01T07:38:57;10.30;53.60
3256;DHT22;1640;48.504;9.224;2023-04-01T07:41:36;10.30;55.20
3256;DHT22;1640;48.504;9.224;2023-04-01T07:44:12;10.30;55.50
3256;DHT22;1640;48.504;9.224;2023-04-01T07:46:52;10.40;55.80
3256;DHT22;1640;48.504;9.224;2023-04-01T07:49:28;10.40;56.70
3256;DHT22;1640;48.504;9.224;2023-04-01T07:52:01;10.40;55.50
3256;DHT22;1640;48.504;9.224;2023-04-01T07:54:38;10.40;56.70
3256;DHT22;1640;48.504;9.224;2023-04-01T07:57:14;10.50;57.80
3256;DHT22;1640;48.504;9.224;2023-04-01T07:59:49;10.50;61.60
3256;DHT22;1640;48.504;9.224;2023-04-01T08:02:30;10.50;61.00
3256;DHT22;1640;48.504;9.224;2023-04-01T08:05:06;10.50;61.30
3256;DHT22;1640;48.504;9.224;2023-04-01T08:07:43;10.60;61.90
3256;DHT22;1640;48.504;9.224;2023-04-01T08:10:17;10.60;61.70
3256;DHT22;1640;48.504;9.224;2023-04-01T08:12:57;10.60;62.70
3256;DHT22;1640;48.504;9.224;2023-04-01T08:15:28;10.50;61.00
3256;DHT22;1640;48.504;9.224;2023-04-01T08:18:09;10.50;59.90
3256;DHT22;1640;48.504;9.224;2023-04-01T08:20:42;10.50;62.30
3256;DHT22;1640;48.504;9.224;2023-04-01T08:23:16;10.50;60.90
3256;DHT22;1640;48.504;9.224;2023-04-01T08:25:49;10.40;59.20
3256;DHT22;1640;48.504;9.224;2023-04-01T08:28:24;10.40;59.60
3256;DHT22;1640;48.504;9.224;2023-04-01T08:30:59;10.60;56.60
3256;DHT22;1640;48.504;9.224;2023-04-01T08:33:28;10.70;58.60
3256;DHT22;1640;48.504;9.224;2023-04-01T08:35:59;10.80;57.30
3256;DHT22;1640;48.504;9.224;2023-04-01T08:38:31;10.80;57.70
3256;DHT22;1640;48.504;9.224;2023-04-01T08:41:01;10.80;56.60
3256;DHT22;1640;48.504;9.224;2023-04-01T08:43:54;10.80;60.90
3256;DHT22;1640;48.504;9.224;2023-04-01T08:49:42;10.80;61.60
3256;DHT22;1640;48.504;9.224;2023-04-01T08:52:34;10.70;59.60
3256;DHT22;1640;48.504;9.224;2023-04-01T08:55:27;10.70;60.00
3256;DHT22;1640;48.504;9.224;2023-04-01T08:58:38;10.50;58.60
3256;DHT22;1640;48.504;9.224;2023-04-01T09:01:17;10.40;57.30
3256;DHT22;1640;48.504;9.224;2023-04-01T09:04:02;10.40;58.40
3256;DHT22;1640;48.504;9.224;2023-04-01T09:06:37;10.50;55.40
3256;DHT22;1640;48.504;9.224;2023-04-01T09:18:51;10.50;36.50
3256;DHT22;1640;48.504;9.224;2023-04-01T09:21:35;10.30;33.00
3256;DHT22;1640;48.504;9.224;2023-04-01T09:24:28;10.40;33.30
3256;DHT22;1640;48.504;9.224;2023-04-01T09:27:04;10.40;23.00
3256;DHT22;1640;48.504;9.224;2023-04-01T09:29:53;10.40;18.80
3256;DHT22;1640;48.504;9.224;2023-04-01T09:32:47;10.60;25.30
3256;DHT22;1640;48.504;9.224;2023-04-01T09:35:23;10.90;33.70
3256;DHT22;1640;48.504;9.224;2023-04-01T09:37:54;11.00;44.40
3256;DHT22;1640;48.504;9.224;2023-04-01T09:40:43;10.90;38.00
3256;DHT22;1640;48.504;9.224;2023-04-01T09:43:25;10.70;31.40
3256;DHT22;1640;48.504;9.224;2023-04-01T09:46:04;10.70;24.80
3256;DHT22;1640;48.504;9.224;2023-04-01T09:51:47;10.30;24.50
3256;DHT22;1640;48.504;9.224;2023-04-01T09:54:30;10.00;12.50
3256;DHT22;1640;48.504;9.224;2023-04-01T10:00:32;10.10;5.60
3256;DHT22;1640;48.504;9.224;2023-04-01T10:12:57;11.00;25.00
3256;DHT22;1640;48.504;9.224;2023-04-01T10:18:52;11.00;28.80
3256;DHT22;1640;48.504;9.224;2023-04-01T10:27:52;10.10;2.60
3256;DHT22;1640;48.504;9.224;2023-04-01T10:30:48;9.80;99.90
3256;DHT22;1640;48.504;9.224;2023-04-01T10:34:01;9.70;99.90
3256;DHT22;1640;48.504;9.224;2023-04-01T10:36:54;9.70;99.90
3256;DHT22;1640;48.504;9.224;2023-04-01T10:42:45;9.90;99.90
3256;DHT22;1640;48.504;9.224;2023-04-01T10:52:20;10.40;99.90
3256;DHT22;1640;48.504;9.224;2023-04-01T10:54:55;10.50;14.60
3256;DHT22;1640;48.504;9.224;2023-04-01T10:57:52;10.60;0.70
3256;DHT22;1640;48.504;9.224;2023-04-01T11:04:08;10.70;15.70
3256;DHT22;1640;48.504;9.224;2023-04-01T11:07:40;11.00;23.40
3256;DHT22;1640;48.504;9.224;2023-04-01T11:13:35;10.90;20.90
3256;DHT22;1640;48.504;9.224;2023-04-01T11:16:44;10.90;19.40
3256;DHT22;1640;48.504;9.224;2023-04-01T11:22:40;10.80;20.40
3256;DHT22;1640;48.504;9.224;2023-04-01T11:25:50;10.90;15.40
3256;DHT22;1640;48.504;9.224;2023-04-01T11:28:34;11.10;14.30
3256;DHT22;1640;48.504;9.224;2023-04-01T11:31:24;11.00;19.40
3256;DHT22;1640;48.504;9.224;2023-04-01T11:33:56;10.80;22.20
3256;DHT22;1640;48.504;9.224;2023-04-01T11:36:39;10.70;13.90
3256;DHT22;1640;48.504;9.224;2023-04-01T11:39:20;10.40;5.00
3256;DHT22;1640;48.504;9.224;2023-04-01T11:42:03;10.40;99.90
3256;DHT22;1640;48.504;9.224;2023-04-01T11:44:39;10.30;1.30
3256;DHT22;1640;48.504;9.224;2023-04-01T11:47:27;10.30;99.90
3256;DHT22;1640;48.504;9.224;2023-04-01T11:50:15;10.50;99.90
3256;DHT22;1640;48.504;9.224;2023-04-01T11:53:05;10.80;8.00
3256;DHT22;1640;48.504;9.224;2023-04-01T11:55:46;11.10;14.90
3256;DHT22;1640;48.504;9.224;2023-04-01T11:58:48;11.40;27.30
3256;DHT22;1640;48.504;9.224;2023-04-01T12:01:28;11.90;29.90
3256;DHT22;1640;48.504;9.224;2023-04-01T12:04:26;12.20;44.50
3256;DHT22;1640;48.504;9.224;2023-04-01T12:07:06;12.20;46.80
3256;DHT22;1640;48.504;9.224;2023-04-01T12:09:44;12.20;43.30
3256;DHT22;1640;48.504;9.224;2023-04-01T12:12:24;12.20;45.20
3256;DHT22;1640;48.504;9.224;2023-04-01T12:15:03;12.00;33.40
3256;DHT22;1640;48.504;9.224;2023-04-01T12:17:38;11.90;24.20
3256;DHT22;1640;48.504;9.224;2023-04-01T12:20:33;11.80;22.30
3256;DHT22;1640;48.504;9.224;2023-04-01T12:23:22;11.90;25.10
3256;DHT22;1640;48.504;9.224;2023-04-01T12:26:16;12.00;28.20
3256;DHT22;1640;48.504;9.224;2023-04-01T12:29:04;11.70;21.10
3256;DHT22;1640;48.504;9.224;2023-04-01T12:31:42;11.70;15.30
3256;DHT22;1640;48.504;9.224;2023-04-01T12:34:39;11.90;20.40
3256;DHT22;1640;48.504;9.224;2023-04-01T12:37:13;12.00;25.20
3256;DHT22;1640;48.504;9.224;2023-04-01T12:40:20;11.90;22.50
3256;DHT22;1640;48.504;9.224;2023-04-01T12:42:59;11.60;20.90
3256;DHT22;1640;48.504;9.224;2023-04-01T12:45:31;11.60;16.80
3256;DHT22;1640;48.504;9.224;2023-04-01T12:48:27;11.50;19.40
3256;DHT22;1640;48.504;9.224;2023-04-01T12:51:24;11.30;15.30
3256;DHT22;1640;48.504;9.224;2023-04-01T12:54:14;11.40;21.50
3256;DHT22;1640;48.504;9.224;2023-04-01T12:56:49;11.60;28.50
3256;DHT22;1640;48.504;9.224;2023-04-01T12:59:36;11.80;28.50
3256;DHT22;1640;48.504;9.224;2023-04-01T13:02:12;12.00;32.60
3256;DHT22;1640;48.504;9.224;2023-04-01T13:07:55;12.10;38.40
3256;DHT22;1640;48.504;9.224;2023-04-01T13:11:02;12.30;41.00
3256;DHT22;1640;48.504;9.224;2023-04-01T13:14:05;12.20;40.70
3256;DHT22;1640;48.504;9.224;2023-04-01T13:16:43;12.30;41.50
3256;DHT22;1640;48.504;9.224;2023-04-01T13:19:19;12.30;45.20
3256;DHT22;1640;48.504;9.224;2023-04-01T13:21:54;12.40;45.50
3256;DHT22;1640;48.504;9.224;2023-04-01T13:24:35;12.40;61.00
3256;DHT22;1640;48.504;9.224;2023-04-01T13:27:09;12.60;56.10
3256;DHT22;1640;48.504;9.224;2023-04-01T13:29:57;12.80;63.20
3256;DHT22;1640;48.504;9.224;2023-04-01T13:32:32;12.80;61.00
3256;DHT22;1640;48.504;9.224;2023-04-01T13:35:23;13.10;62.60
3256;DHT22;1640;48.504;9.224;2023-04-01T13:38:12;13.00;65.00
3256;DHT22;1640;48.504;9.224;2023-04-01T13:40:51;12.90;66.30
3256;DHT22;1640;48.504;9.224;2023-04-01T13:43:24;12.80;64.50
3256;DHT22;1640;48.504;9.224;2023-04-01T13:49:19;12.30;61.10
3256;DHT22;1640;48.504;9.224;2023-04-01T13:52:17;12.00;58.90
3256;DHT22;1640;48.504;9.224;2023-04-01T13:55:06;11.90;60.00
3256;DHT22;1640;48.504;9.224;2023-04-01T13:57:52;11.60;57.00
3256;DHT22;1640;48.504;9.224;2023-04-01T14:00:35;11.70;52.10
3256;DHT22;1640;48.504;9.224;2023-04-01T14:03:30;12.00;57.40
3256;DHT22;1640;48.504;9.224;2023-04-01T14:06:06;12.30;58.50
3256;DHT22;1640;48.504;9.224;2023-04-01T14:08:54;12.50;59.70
3256;DHT22;1640;48.504;9.224;2023-04-01T14:11:27;12.30;59.70
3256;DHT22;1640;48.504;9.224;2023-04-01T14:14:05;12.60;60.70
3256;DHT22;1640;48.504;9.224;2023-04-01T14:16:55;12.60;65.50
3256;DHT22;1640;48.504;9.224;2023-04-01T14:22:25;12.50;65.50
3256;DHT22;1640;48.504;9.224;2023-04-01T14:28:11;12.20;66.60
3256;DHT22;1640;48.504;9.224;2023-04-01T14:31:11;12.20;65.20
3256;DHT22;1640;48.504;9.224;2023-04-01T14:33:55;12.30;65.50
3256;DHT22;1640;48.504;9.224;2023-04-01T14:36:39;12.30;66.60
3256;DHT22;1640;48.504;9.224;2023-04-01T14:39:35;12.10;64.60
3256;DHT22;1640;48.504;9.224;2023-04-01T14:42:19;12.00;63.00
3256;DHT22;1640;48.504;9.224;2023-04-01T14:45:02;11.80;63.30
3256;DHT22;1640;48.504;9.224;2023-04-01T14:47:47;11.60;60.30
3256;DHT22;1640;48.504;9.224;2023-04-01T14:50:18;11.70;61.60
3256;DHT22;1640;48.504;9.224;2023-04-01T14:52:56;11.60;59.70
3256;DHT22;1640;48.504;9.224;2023-04-01T14:55:31;11.60;58.50
3256;DHT22;1640;48.504;9.224;2023-04-01T14:58:08;11.70;58.20
3256;DHT22;1640;48.504;9.224;2023-04-01T15:00:58;11.60;60.10
3256;DHT22;1640;48.504;9.224;2023-04-01T15:03:30;11.50;58.10
3256;DHT22;1640;48.504;9.224;2023-04-01T15:06:16;11.50;54.80
3256;DHT22;1640;48.504;9.224;2023-04-01T15:08:52;11.60;55.50
3256;DHT22;1640;48.504;9.224;2023-04-01T15:11:33;11.60;55.50
3256;DHT22;1640;48.504;9.224;2023-04-01T15:14:50;11.70;54.30
3256;DHT22;1640;48.504;9.224;2023-04-01T15:17:34;11.90;57.10
3256;DHT22;1640;48.504;9.224;2023-04-01T15:20:16;12.00;58.00
3256;DHT22;1640;48.504;9.224;2023-04-01T15:23:07;11.80;57.70
3256;DHT22;1640;48.504;9.224;2023-04-01T15:25:50;11.90;57.00
3256;DHT22;1640;48.504;9.224;2023-04-01T15:28:26;11.90;57.80
3256;DHT22;1640;48.504;9.224;2023-04-01T15:31:01;11.80;56.50
3256;DHT22;1640;48.504;9.224;2023-04-01T15:33:55;11.70;55.00
3256;DHT22;1640;48.504;9.224;2023-04-01T15:36:32;11.70;56.60
3256;DHT22;1640;48.504;9.224;2023-04-01T15:39:11;11.60;55.60
3256;DHT22;1640;48.504;9.224;2023-04-01T15:42:04;11.40;54.30
3256;DHT22;1640;48.504;9.224;2023-04-01T15:44:46;11.40;50.20
3256;DHT22;1640;48.504;9.224;2023-04-01T15:47:37;11.40;51.70
3256;DHT22;1640;48.504;9.224;2023-04-01T15:50:45;11.40;52.50
3256;DHT22;1640;48.504;9.224;2023-04-01T15:53:35;11.30;51.20
3256;DHT22;1640;48.504;9.224;2023-04-01T15:56:19;11.10;47.90
3256;DHT22;1640;48.504;9.224;2023-04-01T15:58:59;11.10;52.00
3256;DHT22;1640;48.504;9.224;2023-04-01T16:01:37;11.10;53.60
3256;DHT22;1640;48.504;9.224;2023-04-01T16:04:28;11.00;52.10
3256;DHT22;1640;48.504;9.224;2023-04-01T16:07:11;11.10;52.00
3256;DHT22;1640;48.504;9.224;2023-04-01T16:09:57;11.10;52.90
3256;DHT22;1640;48.504;9.224;2023-04-01T16:12:41;11.00;53.30
3256;DHT22;1640;48.504;9.224;2023-04-01T16:15:21;11.10;54.60
3256;DHT22;1640;48.504;9.224;2023-04-01T16:18:26;11.00;55.50
3256;DHT22;1640;48.504;9.224;2023-04-01T16:21:01;11.00;55.80
3256;DHT22;1640;48.504;9.224;2023-04-01T16:23:36;11.00;53.70
3256;DHT22;1640;48.504;9.224;2023-04-01T16:26:07;11.00;54.00
3256;DHT22;1640;48.504;9.224;2023-04-01T16:28:40;11.00;55.10
3256;DHT22;1640;48.504;9.224;2023-04-01T16:31:15;11.10;54.30
3256;DHT22;1640;48.504;9.224;2023-04-01T16:33:48;11.10;55.60
3256;DHT22;1640;48.504;9.224;2023-04-01T16:36:26;11.20;56.70
3256;DHT22;1640;48.504;9.224;2023-04-01T16:39:09;11.20;57.00
3256;DHT22;1640;48.504;9.224;2023-04-01T16:41:41;11.20;57.10
3256;DHT22;1640;48.504;9.224;2023-04-01T16:44:18;11.20;57.10
3256;DHT22;1640;48.504;9.224;2023-04-01T16:46:50;11.10;56.10
3256;DHT22;1640;48.504;9.224;2023-04-01T16:49:29;11.10;55.80
3256;DHT22;1640;48.504;9.224;2023-04-01T16:52:16;11.10;56.30
3256;DHT22;1640;48.504;9.224;2023-04-01T16:54:53;11.10;54.40
3256;DHT22;1640;48.504;9.224;2023-04-01T16:57:26;11.20;55.10
3256;DHT22;1640;48.504;9.224;2023-04-01T16:59:58;11.10;53.20
3256;DHT22;1640;48.504;9.224;2023-04-01T17:02:33;11.00;53.70
3256;DHT22;1640;48.504;9.224;2023-04-01T17:05:06;11.10;52.70
3256;DHT22;1640;48.504;9.224;2023-04-01T17:07:44;11.00;51.20
3256;DHT22;1640;48.504;9.224;2023-04-01T17:10:42;11.10;51.00
3256;DHT22;1640;48.504;9.224;2023-04-01T17:13:39;11.10;51.80
3256;DHT22;1640;48.504;9.224;2023-04-01T17:16:27;11.10;52.50
3256;DHT22;1640;48.504;9.224;2023-04-01T17:19:01;11.10;50.60
3256;DHT22;1640;48.504;9.224;2023-04-01T17:21:49;11.00;50.90
3256;DHT22;1640;48.504;9.224;2023-04-01T17:24:31;11.00;50.50
3256;DHT22;1640;48.504;9.224;2023-04-01T17:27:10;10.90;49.30
3256;DHT22;1640;48.504;9.224;2023-04-01T17:29:55;10.90;46.80
3256;DHT22;1640;48.504;9.224;2023-04-01T17:32:36;10.90;48.50
3256;DHT22;1640;48.504;9.224;2023-04-01T17:35:10;11.00;50.50
3256;DHT22;1640;48.504;9.224;2023-04-01T17:37:48;10.90;49.10
3256;DHT22;1640;48.504;9.224;2023-04-01T17:40:30;10.80;50.80
3256;DHT22;1640;48.504;9.224;2023-04-01T17:43:09;10.70;47.10
3256;DHT22;1640;48.504;9.224;2023-04-01T17:45:44;10.80;51.00
3256;DHT22;1640;48.504;9.224;2023-04-01T17:48:24;10.70;49.70
3256;DHT22;1640;48.504;9.224;2023-04-01T17:51:17;10.70;50.60
3256;DHT22;1640;48.504;9.224;2023-04-01T17:53:56;10.60;50.80
3256;DHT22;1640;48.504;9.224;2023-04-01T17:56:41;10.60;50.20
3256;DHT22;1640;48.504;9.224;2023-04-01T17:59:17;10.60;48.00
3256;DHT22;1640;48.504;9.224;2023-04-01T18:01:55;10.60;48.60
3256;DHT22;1640;48.504;9.224;2023-04-01T18:08:01;10.50;48.50
3256;DHT22;1640;48.504;9.224;2023-04-01T18:10:36;10.50;46.10
3256;DHT22;1640;48.504;9.224;2023-04-01T18:16:18;10.50;43.80
3256;DHT22;1640;48.504;9.224;2023-04-01T18:18:59;10.50;42.80
3256;DHT22;1640;48.504;9.224;2023-04-01T18:21:34;10.50;42.30
3256;DHT22;1640;48.504;9.224;2023-04-01T18:24:14;10.50;43.20
3256;DHT22;1640;48.504;9.224;2023-04-01T18:26:48;10.50;46.30
3256;DHT22;1640;48.504;9.224;2023-04-01T18:29:26;10.40;44.90
3256;DHT22;1640;48.504;9.224;2023-04-01T18:32:10;10.50;44.10
3256;DHT22;1640;48.504;9.224;2023-04-01T18:34:49;10.40;44.40
3256;DHT22;1640;48.504;9.224;2023-04-01T18:37:22;10.40;44.10
3256;DHT22;1640;48.504;9.224;2023-04-01T18:39:53;10.50;47.10